sensor_id;sensor_type;location;lat;lon;timestamp;temperature;humidity
8527;DHT22;4301;48.362;8.478;2023-03-01T00:01:39;-2.70;99.90
8527;DHT22;4301;48.362;8.478;2023-03-01T00:04:06;-2.80;99.90
8527;DHT22;4301;48.362;8.478;2023-03-01T00:06:33;-2.80;99.90
8527;DHT22;4301;48.362;8.478;2023-03-01T00:09:00;-2.90;99.90
8527;DHT22;4301;48.362;8.478;2023-03-01T00:11:29;-2.90;99.90
8527;DHT22;4301;48.362;8.478;2023-03-01T00:13:57;-3.00;99.90
8527;DHT22;4301;48.362;8.478;2023-03-01T00:16:28;-3.00;99.90
8527;DHT22;4301;48.362;8.478;2023-03-01T00:18:55;-3.00;1.00
8527;DHT22;4301;48.362;8.478;2023-03-01T00:21:23;-3.00;1.00
8527;DHT22;4301;48.362;8.478;2023-03-01T00:23:50;-3.10;1.00
8527;DHT22;4301;48.362;8.478;2023-03-01T00:26:19;-3.10;1.00
8527;DHT22;4301;48.362;8.478;2023-03-01T00:28:48;-3.10;1.00
8527;DHT22;4301;48.362;8.478;2023-03-01T00:31:17;-3.20;1.00
8527;DHT22;4301;48.362;8.478;2023-03-01T00:33:45;-3.10;1.00
8527;DHT22;4301;48.362;8.478;2023-03-01T00:36:13;-3.10;1.00
8527;DHT22;4301;48.362;8.478;2023-03-01T00:38:43;-3.10;1.00
8527;DHT22;4301;48.362;8.478;2023-03-01T00:41:11;-3.20;1.00
8527;DHT22;4301;48.362;8.478;2023-03-01T00:43:39;-3.20;1.00
8527;DHT22;4301;48.362;8.478;2023-03-01T00:46:09;-3.20;1.00
8527;DHT22;4301;48.362;8.478;2023-03-01T00:48:37;-3.20;1.00
8527;DHT22;4301;48.362;8.478;2023-03-01T00:51:05;-3.10;1.00
8527;DHT22;4301;48.362;8.478;2023-03-01T00:53:33;-3.20;1.00
8527;DHT22;4301;48.362;8.478;2023-03-01T00:56:00;-3.20;1.00
8527;DHT22;4301;48.362;8.478;2023-03-01T00:58:27;-3.20;1.00
8527;DHT22;4301;48.362;8.478;2023-03-01T01:00:54;-3.30;1.00
8527;DHT22;4301;48.362;8.478;2023-03-01T01:03:22;-3.30;1.00
8527;DHT22;4301;48.362;8.478;2023-03-01T01:05:54;-3.40;1.00
8527;DHT22;4301;48.362;8.478;2023-03-01T01:08:21;-3.40;1.00
8527;DHT22;4301;48.362;8.478;2023-03-01T01:10:48;-3.40;1.00
8527;DHT22;4301;48.362;8.478;2023-03-01T01:13:15;-3.50;1.00
8527;DHT22;4301;48.362;8.478;2023-03-01T01:15:42;-3.50;1.00
8527;DHT22;4301;48.362;8.478;2023-03-01T01:18:09;-3.60;1.00
8527;DHT22;4301;48.362;8.478;2023-03-01T01:20:37;-3.60;1.00
8527;DHT22;4301;48.362;8.478;2023-03-01T01:23:05;-3.60;1.00
8527;DHT22;4301;48.362;8.478;2023-03-01T01:25:34;-3.70;1.00
8527;DHT22;4301;48.362;8.478;2023-03-01T01:28:02;-3.70;1.00
8527;DHT22;4301;48.362;8.478;2023-03-01T01:30:29;-3.80;1.00
8527;DHT22;4301;48.362;8.478;2023-03-01T01:32:56;-3.80;1.00
8527;DHT22;4301;48.362;8.478;2023-03-01T01:35:23;-3.80;1.00
8527;DHT22;4301;48.362;8.478;2023-03-01T01:37:51;-3.80;1.00
8527;DHT22;4301;48.362;8.478;2023-03-01T01:40:18;-3.80;1.00
8527;DHT22;4301;48.362;8.478;2023-03-01T01:42:45;-3.90;1.00
8527;DHT22;4301;48.362;8.478;2023-03-01T01:45:31;-3.90;1.00
8527;DHT22;4301;48.362;8.478;2023-03-01T01:48:03;-4.00;1.00
8527;DHT22;4301;48.362;8.478;2023-03-01T01:50:32;-4.00;1.00
8527;DHT22;4301;48.362;8.478;2023-03-01T01:53:09;-4.00;1.00
8527;DHT22;4301;48.362;8.478;2023-03-01T01:55:37;-4.00;1.00
8527;DHT22;4301;48.362;8.478;2023-03-01T01:58:08;-4.00;1.00
8527;DHT22;4301;48.362;8.478;2023-03-01T02:00:37;-4.00;1.00
8527;DHT22;4301;48.362;8.478;2023-03-01T02:03:07;-4.10;1.00
8527;DHT22;4301;48.362;8.478;2023-03-01T02:05:39;-4.10;1.00
8527;DHT22;4301;48.362;8.478;2023-03-01T02:08:12;-4.20;1.00
8527;DHT22;4301;48.362;8.478;2023-03-01T02:10:41;-4.20;1.00
8527;DHT22;4301;48.362;8.478;2023-03-01T02:13:09;-4.30;1.00
8527;DHT22;4301;48.362;8.478;2023-03-01T02:15:39;-4.30;1.00
8527;DHT22;4301;48.362;8.478;2023-03-01T02:18:08;-4.30;1.00
8527;DHT22;4301;48.362;8.478;2023-03-01T02:20:43;-4.30;1.00
8527;DHT22;4301;48.362;8.478;2023-03-01T02:23:13;-4.30;1.00
8527;DHT22;4301;48.362;8.478;2023-03-01T02:25:46;-4.40;1.00
8527;DHT22;4301;48.362;8.478;2023-03-01T02:28:26;-4.40;1.00
8527;DHT22;4301;48.362;8.478;2023-03-01T02:30:53;-4.40;1.00
8527;DHT22;4301;48.362;8.478;2023-03-01T02:33:38;-4.50;1.00
8527;DHT22;4301;48.362;8.478;2023-03-01T02:36:08;-4.50;1.00
8527;DHT22;4301;48.362;8.478;2023-03-01T02:38:37;-4.50;1.00
8527;DHT22;4301;48.362;8.478;2023-03-01T02:41:06;-4.60;1.00
8527;DHT22;4301;48.362;8.478;2023-03-01T02:43:35;-4.60;1.00
8527;DHT22;4301;48.362;8.478;2023-03-01T02:46:07;-4.60;5.30
8527;DHT22;4301;48.362;8.478;2023-03-01T02:48:42;-4.60;4.20
8527;DHT22;4301;48.362;8.478;2023-03-01T02:51:19;-4.70;22.70
8527;DHT22;4301;48.362;8.478;2023-03-01T02:53:56;-4.60;24.90
8527;DHT22;4301;48.362;8.478;2023-03-01T02:56:26;-4.50;31.20
8527;DHT22;4301;48.362;8.478;2023-03-01T02:58:54;-4.30;38.90
8527;DHT22;4301;48.362;8.478;2023-03-01T03:01:27;-4.10;36.00
8527;DHT22;4301;48.362;8.478;2023-03-01T03:04:03;-3.90;33.50
8527;DHT22;4301;48.362;8.478;2023-03-01T03:06:30;-3.80;17.70
8527;DHT22;4301;48.362;8.478;2023-03-01T03:08:57;-3.60;1.00
8527;DHT22;4301;48.362;8.478;2023-03-01T03:11:24;-3.40;1.00
8527;DHT22;4301;48.362;8.478;2023-03-01T03:13:51;-3.30;1.00
8527;DHT22;4301;48.362;8.478;2023-03-01T03:16:20;-3.30;1.00
8527;DHT22;4301;48.362;8.478;2023-03-01T03:18:47;-3.20;1.00
8527;DHT22;4301;48.362;8.478;2023-03-01T03:21:15;-3.10;1.00
8527;DHT22;4301;48.362;8.478;2023-03-01T03:23:43;-3.00;1.00
8527;DHT22;4301;48.362;8.478;2023-03-01T03:26:09;-3.00;1.00
8527;DHT22;4301;48.362;8.478;2023-03-01T03:28:39;-2.90;1.00
8527;DHT22;4301;48.362;8.478;2023-03-01T03:31:06;-2.80;1.00
8527;DHT22;4301;48.362;8.478;2023-03-01T03:33:35;-2.80;1.00
8527;DHT22;4301;48.362;8.478;2023-03-01T03:36:03;-2.70;1.00
8527;DHT22;4301;48.362;8.478;2023-03-01T03:38:30;-2.70;1.00
8527;DHT22;4301;48.362;8.478;2023-03-01T03:41:02;-2.60;1.00
8527;DHT22;4301;48.362;8.478;2023-03-01T03:43:31;-2.60;1.00
8527;DHT22;4301;48.362;8.478;2023-03-01T03:45:58;-2.60;1.00
8527;DHT22;4301;48.362;8.478;2023-03-01T03:48:26;-2.60;1.00
8527;DHT22;4301;48.362;8.478;2023-03-01T03:50:56;-2.60;1.00
8527;DHT22;4301;48.362;8.478;2023-03-01T03:53:27;-2.50;1.00
8527;DHT22;4301;48.362;8.478;2023-03-01T03:55:55;-2.60;1.00
8527;DHT22;4301;48.362;8.478;2023-03-01T03:58:24;-2.50;1.00
8527;DHT22;4301;48.362;8.478;2023-03-01T04:00:54;-2.40;1.00
8527;DHT22;4301;48.362;8.478;2023-03-01T04:03:22;-2.30;1.00
8527;DHT22;4301;48.362;8.478;2023-03-01T04:05:50;-2.40;1.00
8527;DHT22;4301;48.362;8.478;2023-03-01T04:08:21;-2.40;1.00
8527;DHT22;4301;48.362;8.478;2023-03-01T04:10:50;-2.40;1.00
8527;DHT22;4301;48.362;8.478;2023-03-01T04:13:19;-2.30;1.00
8527;DHT22;4301;48.362;8.478;2023-03-01T04:15:48;-2.30;1.00
8527;DHT22;4301;48.362;8.478;2023-03-01T04:18:16;-2.30;1.00
8527;DHT22;4301;48.362;8.478;2023-03-01T04:20:44;-2.30;1.00
8527;DHT22;4301;48.362;8.478;2023-03-01T04:23:13;-2.30;1.00
8527;DHT22;4301;48.362;8.478;2023-03-01T04:25:46;-2.20;1.00
8527;DHT22;4301;48.362;8.478;2023-03-01T04:28:15;-2.20;1.00
8527;DHT22;4301;48.362;8.478;2023-03-01T04:30:42;-2.20;1.00
8527;DHT22;4301;48.362;8.478;2023-03-01T04:33:10;-2.20;1.00
8527;DHT22;4301;48.362;8.478;2023-03-01T04:35:37;-2.20;1.00
8527;DHT22;4301;48.362;8.478;2023-03-01T04:38:06;-2.20;1.00
8527;DHT22;4301;48.362;8.478;2023-03-01T04:40:33;-2.10;1.00
8527;DHT22;4301;48.362;8.478;2023-03-01T04:43:02;-2.10;1.00
8527;DHT22;4301;48.362;8.478;2023-03-01T04:45:30;-2.10;1.00
8527;DHT22;4301;48.362;8.478;2023-03-01T04:47:59;-2.10;1.00
8527;DHT22;4301;48.362;8.478;2023-03-01T04:50:26;-2.10;1.00
8527;DHT22;4301;48.362;8.478;2023-03-01T04:52:53;-2.00;1.00
8527;DHT22;4301;48.362;8.478;2023-03-01T04:55:24;-2.10;1.00
8527;DHT22;4301;48.362;8.478;2023-03-01T04:57:51;-2.10;1.00
8527;DHT22;4301;48.362;8.478;2023-03-01T05:00:21;-2.10;1.00
8527;DHT22;4301;48.362;8.478;2023-03-01T05:02:50;-2.10;1.00
8527;DHT22;4301;48.362;8.478;2023-03-01T05:05:20;-2.10;1.00
8527;DHT22;4301;48.362;8.478;2023-03-01T05:07:51;-2.10;1.00
8527;DHT22;4301;48.362;8.478;2023-03-01T05:10:18;-2.10;1.00
8527;DHT22;4301;48.362;8.478;2023-03-01T05:12:45;-2.10;1.00
8527;DHT22;4301;48.362;8.478;2023-03-01T05:15:13;-2.10;1.00
8527;DHT22;4301;48.362;8.478;2023-03-01T05:17:41;-2.10;1.00
8527;DHT22;4301;48.362;8.478;2023-03-01T05:20:10;-2.00;1.00
8527;DHT22;4301;48.362;8.478;2023-03-01T05:22:37;-2.00;1.00
8527;DHT22;4301;48.362;8.478;2023-03-01T05:25:05;-2.00;1.00
8527;DHT22;4301;48.362;8.478;2023-03-01T05:27:33;-2.10;1.00
8527;DHT22;4301;48.362;8.478;2023-03-01T05:30:00;-2.10;1.00
8527;DHT22;4301;48.362;8.478;2023-03-01T05:32:41;-2.10;1.00
8527;DHT22;4301;48.362;8.478;2023-03-01T05:35:10;-2.10;1.00
8527;DHT22;4301;48.362;8.478;2023-03-01T05:37:39;-2.10;1.00
8527;DHT22;4301;48.362;8.478;2023-03-01T05:40:09;-2.10;1.00
8527;DHT22;4301;48.362;8.478;2023-03-01T05:42:42;-2.00;1.00
8527;DHT22;4301;48.362;8.478;2023-03-01T05:45:09;-2.00;1.00
8527;DHT22;4301;48.362;8.478;2023-03-01T05:47:38;-2.00;1.00
8527;DHT22;4301;48.362;8.478;2023-03-01T05:50:11;-2.00;1.00
8527;DHT22;4301;48.362;8.478;2023-03-01T05:52:39;-1.90;1.00
8527;DHT22;4301;48.362;8.478;2023-03-01T05:55:06;-1.90;1.00
8527;DHT22;4301;48.362;8.478;2023-03-01T05:57:34;-1.90;1.00
8527;DHT22;4301;48.362;8.478;2023-03-01T06:00:01;-1.90;1.00
8527;DHT22;4301;48.362;8.478;2023-03-01T06:02:28;-1.90;1.00
8527;DHT22;4301;48.362;8.478;2023-03-01T06:04:55;-1.90;1.00
8527;DHT22;4301;48.362;8.478;2023-03-01T06:07:24;-1.90;1.00
8527;DHT22;4301;48.362;8.478;2023-03-01T06:09:50;-1.80;1.00
8527;DHT22;4301;48.362;8.478;2023-03-01T06:12:17;-1.90;1.00
8527;DHT22;4301;48.362;8.478;2023-03-01T06:14:45;-1.90;1.00
8527;DHT22;4301;48.362;8.478;2023-03-01T06:17:13;-1.80;1.00
8527;DHT22;4301;48.362;8.478;2023-03-01T06:19:40;-1.80;1.00
8527;DHT22;4301;48.362;8.478;2023-03-01T06:22:07;-1.80;1.00
8527;DHT22;4301;48.362;8.478;2023-03-01T06:24:35;-1.80;1.00
8527;DHT22;4301;48.362;8.478;2023-03-01T06:27:02;-1.80;1.00
8527;DHT22;4301;48.362;8.478;2023-03-01T06:29:29;-1.80;1.00
8527;DHT22;4301;48.362;8.478;2023-03-01T06:31:56;-1.70;1.00
8527;DHT22;4301;48.362;8.478;2023-03-01T06:34:23;-1.70;1.00
8527;DHT22;4301;48.362;8.478;2023-03-01T06:36:50;-1.70;1.00
8527;DHT22;4301;48.362;8.478;2023-03-01T06:39:17;-1.60;1.00
8527;DHT22;4301;48.362;8.478;2023-03-01T06:41:45;-1.60;1.00
8527;DHT22;4301;48.362;8.478;2023-03-01T06:44:12;-1.60;1.00
8527;DHT22;4301;48.362;8.478;2023-03-01T06:46:40;-1.50;1.00
8527;DHT22;4301;48.362;8.478;2023-03-01T06:49:07;-1.50;99.90
8527;DHT22;4301;48.362;8.478;2023-03-01T06:51:35;-1.50;99.90
8527;DHT22;4301;48.362;8.478;2023-03-01T06:54:03;-1.50;99.90
8527;DHT22;4301;48.362;8.478;2023-03-01T06:56:30;-1.50;99.90
8527;DHT22;4301;48.362;8.478;2023-03-01T06:58:58;-1.50;99.90
8527;DHT22;4301;48.362;8.478;2023-03-01T07:01:25;-1.50;99.90
8527;DHT22;4301;48.362;8.478;2023-03-01T07:03:52;-1.40;99.90
8527;DHT22;4301;48.362;8.478;2023-03-01T07:06:19;-1.40;99.90
8527;DHT22;4301;48.362;8.478;2023-03-01T07:08:46;-1.40;99.90
8527;DHT22;4301;48.362;8.478;2023-03-01T07:11:13;-1.30;99.90
8527;DHT22;4301;48.362;8.478;2023-03-01T07:13:41;-1.30;99.90
8527;DHT22;4301;48.362;8.478;2023-03-01T07:16:09;-1.30;99.90
8527;DHT22;4301;48.362;8.478;2023-03-01T07:18:36;-1.20;99.90
8527;DHT22;4301;48.362;8.478;2023-03-01T07:21:06;-1.20;99.90
8527;DHT22;4301;48.362;8.478;2023-03-01T07:23:33;-1.20;99.90
8527;DHT22;4301;48.362;8.478;2023-03-01T07:26:00;-1.10;99.90
8527;DHT22;4301;48.362;8.478;2023-03-01T07:28:27;-1.20;99.90
8527;DHT22;4301;48.362;8.478;2023-03-01T07:30:54;-1.10;99.90
8527;DHT22;4301;48.362;8.478;2023-03-01T07:33:23;-1.10;99.90
8527;DHT22;4301;48.362;8.478;2023-03-01T07:35:56;-1.10;34.90
8527;DHT22;4301;48.362;8.478;2023-03-01T07:38:23;-1.10;31.60
8527;DHT22;4301;48.362;8.478;2023-03-01T07:40:50;-1.00;1.00
8527;DHT22;4301;48.362;8.478;2023-03-01T07:43:17;-1.00;1.00
8527;DHT22;4301;48.362;8.478;2023-03-01T07:45:44;-1.00;1.00
8527;DHT22;4301;48.362;8.478;2023-03-01T07:48:11;-0.90;1.00
8527;DHT22;4301;48.362;8.478;2023-03-01T07:50:39;-0.80;1.00
8527;DHT22;4301;48.362;8.478;2023-03-01T07:53:06;-0.80;1.00
8527;DHT22;4301;48.362;8.478;2023-03-01T07:55:33;-0.70;99.90
8527;DHT22;4301;48.362;8.478;2023-03-01T07:58:00;-0.60;99.90
8527;DHT22;4301;48.362;8.478;2023-03-01T08:00:27;-0.70;99.90
8527;DHT22;4301;48.362;8.478;2023-03-01T08:02:54;-0.60;99.90
8527;DHT22;4301;48.362;8.478;2023-03-01T08:05:21;-0.50;99.90
8527;DHT22;4301;48.362;8.478;2023-03-01T08:07:49;-0.50;1.00
8527;DHT22;4301;48.362;8.478;2023-03-01T08:10:17;-0.50;1.00
8527;DHT22;4301;48.362;8.478;2023-03-01T08:12:44;-0.50;99.90
8527;DHT22;4301;48.362;8.478;2023-03-01T08:15:11;-0.40;1.00
8527;DHT22;4301;48.362;8.478;2023-03-01T08:17:38;-0.40;99.90
8527;DHT22;4301;48.362;8.478;2023-03-01T08:20:05;-0.40;99.90
8527;DHT22;4301;48.362;8.478;2023-03-01T08:22:33;-0.40;1.00
8527;DHT22;4301;48.362;8.478;2023-03-01T08:25:01;-0.30;99.90
8527;DHT22;4301;48.362;8.478;2023-03-01T08:27:28;-0.20;1.00
8527;DHT22;4301;48.362;8.478;2023-03-01T08:29:55;-0.10;1.00
8527;DHT22;4301;48.362;8.478;2023-03-01T08:32:22;0.00;1.00
8527;DHT22;4301;48.362;8.478;2023-03-01T08:34:49;0.10;1.00
8527;DHT22;4301;48.362;8.478;2023-03-01T08:37:16;0.10;99.90
8527;DHT22;4301;48.362;8.478;2023-03-01T08:39:42;0.20;1.00
8527;DHT22;4301;48.362;8.478;2023-03-01T08:42:11;0.30;1.00
8527;DHT22;4301;48.362;8.478;2023-03-01T08:44:38;0.20;1.00
8527;DHT22;4301;48.362;8.478;2023-03-01T08:47:04;0.30;1.00
8527;DHT22;4301;48.362;8.478;2023-03-01T08:49:31;0.30;1.00
8527;DHT22;4301;48.362;8.478;2023-03-01T08:51:59;0.30;99.90
8527;DHT22;4301;48.362;8.478;2023-03-01T08:54:26;0.30;99.90
8527;DHT22;4301;48.362;8.478;2023-03-01T08:56:54;0.30;92.50
8527;DHT22;4301;48.362;8.478;2023-03-01T08:59:22;0.40;99.90
8527;DHT22;4301;48.362;8.478;2023-03-01T09:01:49;0.40;1.00
8527;DHT22;4301;48.362;8.478;2023-03-01T09:04:16;0.50;99.90
8527;DHT22;4301;48.362;8.478;2023-03-01T09:06:43;0.60;1.00
8527;DHT22;4301;48.362;8.478;2023-03-01T09:09:13;0.80;1.00
8527;DHT22;4301;48.362;8.478;2023-03-01T09:11:41;0.80;30.40
8527;DHT22;4301;48.362;8.478;2023-03-01T09:14:08;0.80;1.00
8527;DHT22;4301;48.362;8.478;2023-03-01T09:16:36;0.80;99.90
8527;DHT22;4301;48.362;8.478;2023-03-01T09:19:03;0.90;1.00
8527;DHT22;4301;48.362;8.478;2023-03-01T09:21:31;1.00;99.90
8527;DHT22;4301;48.362;8.478;2023-03-01T09:23:58;0.90;99.90
8527;DHT22;4301;48.362;8.478;2023-03-01T09:26:25;1.10;1.00
8527;DHT22;4301;48.362;8.478;2023-03-01T09:28:54;1.20;99.90
8527;DHT22;4301;48.362;8.478;2023-03-01T09:31:22;1.30;1.00
8527;DHT22;4301;48.362;8.478;2023-03-01T09:33:52;1.40;1.00
8527;DHT22;4301;48.362;8.478;2023-03-01T09:36:21;1.50;99.90
8527;DHT22;4301;48.362;8.478;2023-03-01T09:38:48;1.50;99.90
8527;DHT22;4301;48.362;8.478;2023-03-01T09:41:36;1.60;99.90
8527;DHT22;4301;48.362;8.478;2023-03-01T09:44:11;1.60;99.90
8527;DHT22;4301;48.362;8.478;2023-03-01T09:46:44;1.50;99.90
8527;DHT22;4301;48.362;8.478;2023-03-01T09:49:17;1.70;99.90
8527;DHT22;4301;48.362;8.478;2023-03-01T09:51:54;1.50;95.40
8527;DHT22;4301;48.362;8.478;2023-03-01T09:54:22;1.60;99.90
8527;DHT22;4301;48.362;8.478;2023-03-01T09:57:04;1.70;37.00
8527;DHT22;4301;48.362;8.478;2023-03-01T09:59:42;1.70;99.90
8527;DHT22;4301;48.362;8.478;2023-03-01T10:02:23;1.70;99.90
8527;DHT22;4301;48.362;8.478;2023-03-01T10:04:54;1.60;67.00
8527;DHT22;4301;48.362;8.478;2023-03-01T10:07:29;1.80;79.00
8527;DHT22;4301;48.362;8.478;2023-03-01T10:09:59;1.80;1.00
8527;DHT22;4301;48.362;8.478;2023-03-01T10:12:34;1.90;87.50
8527;DHT22;4301;48.362;8.478;2023-03-01T10:15:05;2.10;1.00
8527;DHT22;4301;48.362;8.478;2023-03-01T10:17:38;2.20;1.00
8527;DHT22;4301;48.362;8.478;2023-03-01T10:20:19;2.10;1.00
8527;DHT22;4301;48.362;8.478;2023-03-01T10:22:46;2.20;1.00
8527;DHT22;4301;48.362;8.478;2023-03-01T10:25:21;2.10;1.00
8527;DHT22;4301;48.362;8.478;2023-03-01T10:27:52;2.20;1.00
8527;DHT22;4301;48.362;8.478;2023-03-01T10:30:22;2.20;1.00
8527;DHT22;4301;48.362;8.478;2023-03-01T10:32:51;2.30;1.00
8527;DHT22;4301;48.362;8.478;2023-03-01T10:35:23;2.40;99.90
8527;DHT22;4301;48.362;8.478;2023-03-01T10:37:58;2.40;99.90
8527;DHT22;4301;48.362;8.478;2023-03-01T10:40:25;2.60;99.90
8527;DHT22;4301;48.362;8.478;2023-03-01T10:42:52;2.70;99.90
8527;DHT22;4301;48.362;8.478;2023-03-01T10:45:31;3.10;99.90
8527;DHT22;4301;48.362;8.478;2023-03-01T10:48:05;3.20;99.90
8527;DHT22;4301;48.362;8.478;2023-03-01T10:50:34;3.30;43.80
8527;DHT22;4301;48.362;8.478;2023-03-01T10:53:04;3.30;99.90
8527;DHT22;4301;48.362;8.478;2023-03-01T10:55:34;3.80;1.00
8527;DHT22;4301;48.362;8.478;2023-03-01T10:58:16;5.30;1.00
8527;DHT22;4301;48.362;8.478;2023-03-01T11:00:50;6.70;99.90
8527;DHT22;4301;48.362;8.478;2023-03-01T11:03:21;8.60;99.90
8527;DHT22;4301;48.362;8.478;2023-03-01T11:05:59;9.50;99.90
8527;DHT22;4301;48.362;8.478;2023-03-01T11:08:38;10.20;99.90
8527;DHT22;4301;48.362;8.478;2023-03-01T11:11:22;10.60;99.90
8527;DHT22;4301;48.362;8.478;2023-03-01T11:13:53;10.90;99.90
8527;DHT22;4301;48.362;8.478;2023-03-01T11:16:31;11.00;99.90
8527;DHT22;4301;48.362;8.478;2023-03-01T11:19:00;11.80;96.30
8527;DHT22;4301;48.362;8.478;2023-03-01T11:21:31;12.70;93.40
8527;DHT22;4301;48.362;8.478;2023-03-01T11:24:00;13.80;78.80
8527;DHT22;4301;48.362;8.478;2023-03-01T11:26:28;13.60;62.40
8527;DHT22;4301;48.362;8.478;2023-03-01T11:29:00;13.00;63.40
8527;DHT22;4301;48.362;8.478;2023-03-01T11:31:29;12.70;54.20
8527;DHT22;4301;48.362;8.478;2023-03-01T11:34:01;13.00;48.10
8527;DHT22;4301;48.362;8.478;2023-03-01T11:36:34;13.20;49.70
8527;DHT22;4301;48.362;8.478;2023-03-01T11:39:05;13.60;48.00
8527;DHT22;4301;48.362;8.478;2023-03-01T11:41:36;14.30;42.30
8527;DHT22;4301;48.362;8.478;2023-03-01T11:44:11;14.80;37.00
8527;DHT22;4301;48.362;8.478;2023-03-01T11:47:05;14.20;33.50
8527;DHT22;4301;48.362;8.478;2023-03-01T11:49:58;13.90;29.10
8527;DHT22;4301;48.362;8.478;2023-03-01T11:52:35;13.40;29.70
8527;DHT22;4301;48.362;8.478;2023-03-01T11:55:23;13.60;27.60
8527;DHT22;4301;48.362;8.478;2023-03-01T11:58:02;13.40;24.00
8527;DHT22;4301;48.362;8.478;2023-03-01T12:00:49;13.70;23.80
8527;DHT22;4301;48.362;8.478;2023-03-01T12:03:31;13.90;23.00
8527;DHT22;4301;48.362;8.478;2023-03-01T12:06:16;14.60;21.70
8527;DHT22;4301;48.362;8.478;2023-03-01T12:09:01;14.50;20.90
8527;DHT22;4301;48.362;8.478;2023-03-01T12:11:47;13.10;13.50
8527;DHT22;4301;48.362;8.478;2023-03-01T12:14:40;13.10;17.50
8527;DHT22;4301;48.362;8.478;2023-03-01T12:17:39;14.30;19.70
8527;DHT22;4301;48.362;8.478;2023-03-01T12:20:20;14.90;19.30
8527;DHT22;4301;48.362;8.478;2023-03-01T12:22:59;14.30;16.60
8527;DHT22;4301;48.362;8.478;2023-03-01T12:25:35;13.80;14.30
8527;DHT22;4301;48.362;8.478;2023-03-01T12:28:16;14.70;16.40
8527;DHT22;4301;48.362;8.478;2023-03-01T12:30:57;14.50;15.80
8527;DHT22;4301;48.362;8.478;2023-03-01T12:33:36;14.50;13.30
8527;DHT22;4301;48.362;8.478;2023-03-01T12:36:35;15.50;16.40
8527;DHT22;4301;48.362;8.478;2023-03-01T12:39:19;15.70;12.00
8527;DHT22;4301;48.362;8.478;2023-03-01T12:41:56;15.90;12.10
8527;DHT22;4301;48.362;8.478;2023-03-01T12:44:47;15.60;7.70
8527;DHT22;4301;48.362;8.478;2023-03-01T12:47:31;15.30;6.80
8527;DHT22;4301;48.362;8.478;2023-03-01T12:50:11;15.20;7.40
8527;DHT22;4301;48.362;8.478;2023-03-01T12:52:43;15.00;3.80
8527;DHT22;4301;48.362;8.478;2023-03-01T12:55:22;14.90;4.50
8527;DHT22;4301;48.362;8.478;2023-03-01T12:58:00;15.20;7.80
8527;DHT22;4301;48.362;8.478;2023-03-01T13:00:32;14.80;2.70
8527;DHT22;4301;48.362;8.478;2023-03-01T13:03:12;14.60;2.90
8527;DHT22;4301;48.362;8.478;2023-03-01T13:05:47;14.20;3.60
8527;DHT22;4301;48.362;8.478;2023-03-01T13:08:22;14.40;2.80
8527;DHT22;4301;48.362;8.478;2023-03-01T13:10:57;14.80;3.80
8527;DHT22;4301;48.362;8.478;2023-03-01T13:13:28;15.00;2.70
8527;DHT22;4301;48.362;8.478;2023-03-01T13:15:56;14.40;1.00
8527;DHT22;4301;48.362;8.478;2023-03-01T13:18:33;14.10;1.00
8527;DHT22;4301;48.362;8.478;2023-03-01T13:21:02;15.00;3.20
8527;DHT22;4301;48.362;8.478;2023-03-01T13:23:33;14.90;2.40
8527;DHT22;4301;48.362;8.478;2023-03-01T13:26:10;14.70;1.00
8527;DHT22;4301;48.362;8.478;2023-03-01T13:28:56;14.90;1.00
8527;DHT22;4301;48.362;8.478;2023-03-01T13:31:56;14.30;1.00
8527;DHT22;4301;48.362;8.478;2023-03-01T13:34:51;15.10;1.00
8527;DHT22;4301;48.362;8.478;2023-03-01T13:37:27;13.40;1.00
8527;DHT22;4301;48.362;8.478;2023-03-01T13:39:57;13.40;1.00
8527;DHT22;4301;48.362;8.478;2023-03-01T13:42:44;13.40;1.00
8527;DHT22;4301;48.362;8.478;2023-03-01T13:45:20;14.40;1.00
8527;DHT22;4301;48.362;8.478;2023-03-01T13:47:51;14.20;1.00
8527;DHT22;4301;48.362;8.478;2023-03-01T13:50:21;15.00;1.00
8527;DHT22;4301;48.362;8.478;2023-03-01T13:52:53;15.10;1.00
8527;DHT22;4301;48.362;8.478;2023-03-01T13:55:26;14.90;1.00
8527;DHT22;4301;48.362;8.478;2023-03-01T13:57:56;14.80;1.00
8527;DHT22;4301;48.362;8.478;2023-03-01T14:00:34;15.40;1.00
8527;DHT22;4301;48.362;8.478;2023-03-01T14:03:03;16.00;1.00
8527;DHT22;4301;48.362;8.478;2023-03-01T14:05:30;16.40;1.00
8527;DHT22;4301;48.362;8.478;2023-03-01T14:07:57;16.20;1.00
8527;DHT22;4301;48.362;8.478;2023-03-01T14:10:29;15.90;1.00
8527;DHT22;4301;48.362;8.478;2023-03-01T14:13:08;15.30;1.00
8527;DHT22;4301;48.362;8.478;2023-03-01T14:15:46;16.40;1.00
8527;DHT22;4301;48.362;8.478;2023-03-01T14:18:20;16.00;1.00
8527;DHT22;4301;48.362;8.478;2023-03-01T14:20:48;16.00;1.00
8527;DHT22;4301;48.362;8.478;2023-03-01T14:23:20;15.50;1.00
8527;DHT22;4301;48.362;8.478;2023-03-01T14:25:49;15.10;1.00
8527;DHT22;4301;48.362;8.478;2023-03-01T14:28:18;16.00;1.00
8527;DHT22;4301;48.362;8.478;2023-03-01T14:30:49;15.60;1.00
8527;DHT22;4301;48.362;8.478;2023-03-01T14:33:23;15.30;1.00
8527;DHT22;4301;48.362;8.478;2023-03-01T14:35:56;14.80;1.00
8527;DHT22;4301;48.362;8.478;2023-03-01T14:38:28;15.60;1.00
8527;DHT22;4301;48.362;8.478;2023-03-01T14:40:57;15.70;1.00
8527;DHT22;4301;48.362;8.478;2023-03-01T14:43:25;15.30;1.00
8527;DHT22;4301;48.362;8.478;2023-03-01T14:45:53;15.00;1.00
8527;DHT22;4301;48.362;8.478;2023-03-01T14:48:21;15.50;1.00
8527;DHT22;4301;48.362;8.478;2023-03-01T14:50:48;15.80;1.00
8527;DHT22;4301;48.362;8.478;2023-03-01T14:53:18;14.90;1.00
8527;DHT22;4301;48.362;8.478;2023-03-01T14:55:47;14.90;1.00
8527;DHT22;4301;48.362;8.478;2023-03-01T14:58:18;15.20;1.00
8527;DHT22;4301;48.362;8.478;2023-03-01T15:00:49;15.40;1.00
8527;DHT22;4301;48.362;8.478;2023-03-01T15:03:24;15.20;1.00
8527;DHT22;4301;48.362;8.478;2023-03-01T15:05:52;15.40;1.00
8527;DHT22;4301;48.362;8.478;2023-03-01T15:08:23;14.80;1.00
8527;DHT22;4301;48.362;8.478;2023-03-01T15:10:58;14.60;1.00
8527;DHT22;4301;48.362;8.478;2023-03-01T15:13:29;14.10;1.00
8527;DHT22;4301;48.362;8.478;2023-03-01T15:16:10;14.20;1.00
8527;DHT22;4301;48.362;8.478;2023-03-01T15:18:43;14.20;1.00
8527;DHT22;4301;48.362;8.478;2023-03-01T15:21:17;14.30;1.00
8527;DHT22;4301;48.362;8.478;2023-03-01T15:23:49;13.90;1.00
8527;DHT22;4301;48.362;8.478;2023-03-01T15:26:23;13.60;1.00
8527;DHT22;4301;48.362;8.478;2023-03-01T15:28:51;13.30;1.00
8527;DHT22;4301;48.362;8.478;2023-03-01T15:31:22;11.60;1.00
8527;DHT22;4301;48.362;8.478;2023-03-01T15:33:51;11.10;1.00
8527;DHT22;4301;48.362;8.478;2023-03-01T15:36:33;11.00;1.00
8527;DHT22;4301;48.362;8.478;2023-03-01T15:39:03;10.80;1.00
8527;DHT22;4301;48.362;8.478;2023-03-01T15:41:37;10.90;1.00
8527;DHT22;4301;48.362;8.478;2023-03-01T15:44:16;11.10;1.00
8527;DHT22;4301;48.362;8.478;2023-03-01T15:46:46;11.30;1.00
8527;DHT22;4301;48.362;8.478;2023-03-01T15:49:34;10.90;1.00
8527;DHT22;4301;48.362;8.478;2023-03-01T15:52:02;10.30;1.00
8527;DHT22;4301;48.362;8.478;2023-03-01T15:54:29;10.20;1.00
8527;DHT22;4301;48.362;8.478;2023-03-01T15:56:57;9.90;1.00
8527;DHT22;4301;48.362;8.478;2023-03-01T15:59:23;9.30;1.00
8527;DHT22;4301;48.362;8.478;2023-03-01T16:01:50;9.30;1.00
8527;DHT22;4301;48.362;8.478;2023-03-01T16:04:18;9.10;1.00
8527;DHT22;4301;48.362;8.478;2023-03-01T16:06:50;9.10;1.00
8527;DHT22;4301;48.362;8.478;2023-03-01T16:09:24;9.10;1.00
8527;DHT22;4301;48.362;8.478;2023-03-01T16:11:52;9.30;1.00
8527;DHT22;4301;48.362;8.478;2023-03-01T16:14:21;9.00;1.00
8527;DHT22;4301;48.362;8.478;2023-03-01T16:16:48;8.80;1.00
8527;DHT22;4301;48.362;8.478;2023-03-01T16:19:15;8.70;1.00
8527;DHT22;4301;48.362;8.478;2023-03-01T16:21:43;8.40;1.00
8527;DHT22;4301;48.362;8.478;2023-03-01T16:24:13;8.20;1.00
8527;DHT22;4301;48.362;8.478;2023-03-01T16:26:40;8.00;1.00
8527;DHT22;4301;48.362;8.478;2023-03-01T16:29:08;7.60;1.00
8527;DHT22;4301;48.362;8.478;2023-03-01T16:31:35;7.40;1.00
8527;DHT22;4301;48.362;8.478;2023-03-01T16:34:02;7.40;1.00
8527;DHT22;4301;48.362;8.478;2023-03-01T16:36:29;6.90;1.30
8527;DHT22;4301;48.362;8.478;2023-03-01T16:38:58;6.60;5.40
8527;DHT22;4301;48.362;8.478;2023-03-01T16:41:27;6.20;8.70